Durango, CO

5:55 AM MDT on September 16, 2014 (GMT -0600)
Cortez Municipal | Change Station
CLOSE
Current Station
Airport
Location: Cortez,
Elevation: 5915 ft
Nearby Weather Stations

Elev 5915 ft 37.31 °N, 108.63 °W | Updated 1 hour ago

Clear
Clear
54 °F
Feels Like 54 °F
N
7
Wind Variable Wind from ENE

Today
High -- | Low -- °F
--% Chance of Precip.
Yesterday
High -- | Low -- °F
Precip. -- in
6:54 AM 7:17 PM
Last Quarter, 46% visible
Pressure 30.08 in
Visibility 10.0 miles
Clouds Clear
Dew Point 46 °F
Humidity 75%
Rainfall 0.00 in
Snow Depth 0 in , 0 in , 1 in
UV 0 out of 12
Pollen 6.50 out of 12
Air Quality Not available.
Flu Activity Not available.
METAR KCEZ 161053Z AUTO 07006KT 10SM CLR 12/08 A3030 RMK AO2 SLP186 T01220078

More Conditions Fewer Conditions

Pressure 30.08 in
Visibility 10.0 miles
Clouds Clear
Dew Point 46 °F
Humidity 75%
Rainfall 0.00 in
Snow Depth 0 in , 0 in , 1 in
UV 0 out of 12
Pollen 6.50 out of 12
Air Quality Not available.
Flu Activity Not available.
METAR KCEZ 161053Z AUTO 07006KT 10SM CLR 12/08 A3030 RMK AO2 SLP186 T01220078

More Conditions Fewer Conditions

10-Day Weather Forecast

Almanac

Astronomy

Sep. 16, 2014 Rise Set
Actual Time 6:54 AM MDT 7:17 PM MDT
Civil Twilight 6:28 AM MDT 7:43 PM MDT
Nautical Twilight 5:57 AM MDT 8:14 PM MDT
Astronomical Twilight 5:26 AM MDT 8:45 PM MDT
Moon 12:11 AM MDT 2:38 PM MDT
Length of Visible Light 13h 15m
Length of Day
12h 23m
Tomorrow will be 2m 21s shorter.
Last Quarter, 46% of the Moon is Illuminated
Today
Last Quarter
Sep 24
New
Oct 1
First Quarter
Oct 8
Full
Oct 15
Last Quarter

Today's Extremes

State Highs State Lows

Community

WunderPhotos

Upload Photos

1,753,724 photos uploaded!

Nearby

Snow Depth

Station Depth Elevation
Ivanhoe 0 in 10400 ft
Grizzly Peak 0 in 11100 ft
Cumbres Trestle 1 in 10020 ft
Jackwhacker Gulch 0 in 10960 ft
Michigan Creek 0 in 10600 ft

Earthquake Activity

City Distance Mag. Time & Date
No recent earthquake activity has been reported nearby.
Minimum magnitude displayed is 2.5.

Coastal Water Temperatures

Place Temperature
No Stations Reporting

Nearby Weather Stations